Time;durP1;ratioP1;P1;durP2;ratioP2;P2;SDS_P1;SDS_P2;PMS_P1;PMS_P2;Temp;Humidity;BMP_temperature;BMP_pressure;BME280_temperature;BME280_humidity;BME280_pressure;Samples;Min_cycle;Max_cycle;Signal;HPM_P1;HPM_P2
2022/01/21 00:01:53;;;;;;;9.10;2.65;;;;;;;-1.37;72.19;100085.12;1630989;86;27492;-75
2022/01/21 00:04:19;;;;;;;10.85;2.80;;;;;;;-1.37;72.61;100084.64;1630892;87;26684;-76
2022/01/21 00:06:45;;;;;;;9.65;3.55;;;;;;;-1.39;72.59;100089.16;1631165;87;25850;-76
2022/01/21 00:09:13;;;;;;;7.58;2.50;;;;;;;-1.40;72.29;100092.77;1631119;86;26514;-76
2022/01/21 00:11:40;;;;;;;6.58;2.55;;;;;;;-1.42;72.47;100103.88;1631362;87;26017;-76
2022/01/21 00:14:07;;;;;;;5.85;2.15;;;;;;;-1.42;72.18;100097.78;1631057;87;28009;-76
2022/01/21 00:16:35;;;;;;;9.03;3.05;;;;;;;-1.44;71.93;100098.37;1630944;87;26314;-76
2022/01/21 00:19:15;;;;;;;6.10;2.22;;;;;;;-1.44;72.55;100103.62;1631103;87;25847;-77
2022/01/21 00:32:40;;;;;;;4.97;2.12;;;;;;;-1.47;71.17;100141.48;1631117;87;25851;-76
2022/01/21 00:35:07;;;;;;;3.85;1.57;;;;;;;-1.47;71.42;100152.45;1631358;86;26518;-77
2022/01/21 00:37:34;;;;;;;6.53;2.20;;;;;;;-1.46;71.39;100146.26;1631217;87;25880;-76
2022/01/21 00:40:04;;;;;;;13.62;2.30;;;;;;;-1.45;70.73;100144.00;1631179;86;27533;-76
2022/01/21 00:42:48;;;;;;;6.17;2.33;;;;;;;-1.43;71.45;100144.72;1630702;87;25823;-75
2022/01/21 00:45:00;;;;;;;7.20;2.33;;;;;;;-1.44;70.86;100146.97;1628665;87;25774;-75
2022/01/21 00:47:27;;;;;;;6.80;1.82;;;;;;;-1.43;71.22;100147.34;1631113;87;26638;-76
2022/01/21 00:49:55;;;;;;;5.55;2.17;;;;;;;-1.41;71.34;100148.05;1631353;86;25773;-76
2022/01/21 00:52:21;;;;;;;4.53;1.77;;;;;;;-1.41;70.93;100151.49;1631122;87;28276;-77
2022/01/21 00:54:48;;;;;;;4.95;1.67;;;;;;;-1.41;70.98;100163.81;1635738;87;26001;-76
2022/01/21 00:57:14;;;;;;;6.20;2.33;;;;;;;-1.43;70.69;100157.85;1637755;87;25785;-76
2022/01/21 00:59:40;;;;;;;8.15;2.10;;;;;;;-1.48;70.83;100153.43;1637429;86;25900;-77
2022/01/21 01:02:07;;;;;;;6.95;2.00;;;;;;;-1.44;70.53;100158.79;1637444;87;26058;-75
2022/01/21 01:04:33;;;;;;;5.20;1.57;;;;;;;-1.46;70.23;100157.61;1637958;87;27563;-76
2022/01/21 01:07:01;;;;;;;4.15;1.77;;;;;;;-1.47;70.10;100155.08;1637818;87;25826;-75
2022/01/21 01:09:28;;;;;;;8.75;2.10;;;;;;;-1.47;70.61;100157.70;1637471;86;25792;-76
2022/01/21 01:12:17;;;;;;;7.37;2.35;;;;;;;-1.48;70.76;100159.99;1637893;87;25771;-76
2022/01/21 01:22:24;;;;;;;4.70;2.12;;;;;;;-1.49;70.56;100159.63;1638200;87;25848;-76
2022/01/21 01:27:41;;;;;;;4.75;2.15;;;;;;;-1.47;70.63;100161.64;1632438;87;25770;-76
2022/01/21 01:30:12;;;;;;;8.88;2.52;;;;;;;-1.50;70.39;100152.24;1631964;86;27485;-75
2022/01/21 01:32:41;;;;;;;4.30;1.65;;;;;;;-1.49;70.82;100159.15;1632410;87;25847;-76
2022/01/21 01:35:10;;;;;;;6.92;2.12;;;;;;;-1.47;70.76;100153.77;1632412;87;25965;-75
2022/01/21 01:40:26;;;;;;;5.65;1.77;;;;;;;-1.47;71.01;100149.83;1632509;86;25791;-75
2022/01/21 01:51:00;;;;;;;7.40;1.72;;;;;;;-1.45;71.18;100144.81;1632637;86;25948;-76
2022/01/21 01:53:35;;;;;;;7.08;2.40;;;;;;;-1.46;71.19;100140.53;1632264;87;25938;-76
2022/01/21 01:56:05;;;;;;;11.38;2.30;;;;;;;-1.47;71.28;100141.48;1620362;88;27457;-76
2022/01/21 01:58:37;;;;;;;5.58;2.37;;;;;;;-1.49;71.67;100144.70;1620485;87;25797;-76
2022/01/21 02:01:05;;;;;;;7.00;1.75;;;;;;;-1.49;71.63;100146.02;1620109;87;25792;-76
2022/01/21 02:03:33;;;;;;;8.90;2.95;;;;;;;-1.49;71.65;100151.27;1620349;87;25775;-76
2022/01/21 02:06:00;;;;;;;8.98;2.25;;;;;;;-1.49;71.41;100143.86;1613416;87;26056;-75
2022/01/21 02:08:27;;;;;;;3.62;1.98;;;;;;;-1.50;71.49;100144.84;1612379;88;27623;-76
2022/01/21 02:10:54;;;;;;;6.05;2.15;;;;;;;-1.51;71.33;100143.16;1626030;86;26483;-76
2022/01/21 02:13:30;;;;;;;10.58;2.75;;;;;;;-1.52;71.68;100143.66;1626140;88;25998;-76
2022/01/21 02:16:30;;;;;;;8.43;2.45;;;;;;;-1.52;71.25;100135.77;1624730;88;26810;-76
2022/01/21 02:21:35;;;;;;;6.10;2.22;;;;;;;-1.53;71.71;100131.94;1626354;86;27496;-77
2022/01/21 02:24:08;;;;;;;5.85;1.95;;;;;;;-1.54;71.66;100133.75;1625819;88;25796;-75
2022/01/21 02:26:35;;;;;;;5.60;1.98;;;;;;;-1.56;71.36;100133.84;1625876;87;26336;-76
2022/01/21 02:29:04;;;;;;;4.78;2.15;;;;;;;-1.56;71.91;100131.70;1626463;88;25821;-76
2022/01/21 02:31:33;;;;;;;8.28;2.30;;;;;;;-1.56;71.82;100128.59;1626270;86;25843;-77
2022/01/21 02:34:00;;;;;;;8.73;2.33;;;;;;;-1.56;71.88;100125.97;1626364;88;27526;-76
2022/01/21 02:36:27;;;;;;;9.23;2.17;;;;;;;-1.56;72.03;100128.59;1626361;88;25862;-76
2022/01/21 02:38:54;;;;;;;9.45;2.17;;;;;;;-1.56;71.81;100133.84;1605810;87;25892;-76
2022/01/21 02:41:22;;;;;;;7.00;2.08;;;;;;;-1.56;71.95;100135.16;1625680;86;26008;-76
2022/01/21 02:43:51;;;;;;;4.80;2.37;;;;;;;-1.55;71.75;100129.44;1626264;88;26557;-76
2022/01/21 02:46:21;;;;;;;3.10;1.80;;;;;;;-1.56;71.75;100136.95;1626463;87;27483;-77
2022/01/21 02:48:48;;;;;;;3.92;1.72;;;;;;;-1.56;71.78;100133.00;1626822;87;26531;-76
2022/01/21 02:51:15;;;;;;;6.08;1.92;;;;;;;-1.56;71.91;100136.48;1626369;86;26543;-75
2022/01/21 02:56:16;;;;;;;5.67;1.87;;;;;;;-1.53;71.86;100141.97;1614216;87;25887;-76
2022/01/21 02:58:46;;;;;;;7.45;2.98;;;;;;;-1.52;71.73;100134.93;1637929;87;28335;-76
2022/01/21 03:01:14;;;;;;;8.05;2.08;;;;;;;-1.53;71.91;100136.72;1637671;86;25926;-77
2022/01/21 03:03:42;;;;;;;5.22;1.90;;;;;;;-1.51;71.80;100140.05;1637678;87;25884;-76
2022/01/21 03:06:09;;;;;;;11.93;2.30;;;;;;;-1.52;71.86;100135.77;1629490;87;25960;-76
2022/01/21 03:08:35;;;;;;;7.12;2.27;;;;;;;-1.52;71.79;100135.77;1636881;87;25787;-76
2022/01/21 03:11:02;;;;;;;5.72;2.12;;;;;;;-1.52;71.70;100129.68;1637732;86;28362;-76
2022/01/21 03:13:28;;;;;;;7.75;1.92;;;;;;;-1.52;71.70;100125.73;1637664;87;25831;-75
2022/01/21 03:15:55;;;;;;;5.20;2.02;;;;;;;-1.53;71.60;100130.62;1637619;87;25839;-75
2022/01/21 03:18:21;;;;;;;5.87;1.82;;;;;;;-1.51;71.94;100142.68;1637761;87;26534;-75
2022/01/21 03:20:47;;;;;;;7.45;2.10;;;;;;;-1.51;71.94;100142.68;1637647;86;25838;-77
2022/01/21 03:23:16;;;;;;;8.70;1.57;;;;;;;-1.49;72.09;100139.92;1637650;87;27499;-75
2022/01/21 03:25:46;;;;;;;6.25;1.95;;;;;;;-1.49;71.76;100135.98;1637783;86;25859;-76
2022/01/21 03:28:13;;;;;;;4.62;1.75;;;;;;;-1.50;71.83;100137.80;1637745;87;25832;-75
2022/01/21 03:30:41;;;;;;;2.83;1.40;;;;;;;-1.52;71.78;100141.03;1637146;86;26615;-75
2022/01/21 03:33:09;;;;;;;8.70;2.22;;;;;;;-1.53;71.99;100139.34;1637163;87;25903;-76
2022/01/21 03:35:37;;;;;;;4.55;1.90;;;;;;;-1.53;72.02;100135.41;1612853;87;27519;-77
2022/01/21 03:38:04;;;;;;;4.80;1.60;;;;;;;-1.53;71.88;100138.03;1637365;87;26044;-75
2022/01/21 03:40:31;;;;;;;1.90;1.17;;;;;;;-1.51;72.26;100130.02;1637503;86;25763;-75
2022/01/21 03:42:58;;;;;;;4.58;1.47;;;;;;;-1.53;72.64;100136.72;1636810;87;25934;-76
2022/01/21 03:45:24;;;;;;;7.30;2.40;;;;;;;-1.51;72.68;100130.02;1637327;87;26037;-76
2022/01/21 03:47:52;;;;;;;3.72;1.22;;;;;;;-1.50;72.56;100126.45;1637337;87;28310;-76
2022/01/21 03:50:29;;;;;;;4.53;1.42;;;;;;;-1.49;72.92;100147.33;1637205;86;25830;-76
2022/01/21 03:52:51;;;;;;;4.50;1.37;;;;;;;-1.46;72.72;100156.30;1636050;87;26171;-77
2022/01/21 03:55:18;;;;;;;8.03;1.77;;;;;;;-1.46;72.76;100147.58;1634409;86;25803;-76
2022/01/21 03:57:44;;;;;;;3.05;1.60;;;;;;;-1.45;72.77;100154.01;1630701;87;25927;-76
2022/01/21 04:00:16;;;;;;;3.35;1.15;;;;;;;-1.44;72.81;100152.22;1630580;86;28298;-76
2022/01/21 04:02:43;;;;;;;3.25;1.65;;;;;;;-1.45;72.57;100150.57;1630048;87;26570;-76
2022/01/21 04:05:12;;;;;;;5.87;1.45;;;;;;;-1.45;73.11;100158.45;1630348;87;25803;-76
2022/01/21 04:07:38;;;;;;;4.47;1.37;;;;;;;-1.44;72.97;100157.48;1608576;87;25842;-75
2022/01/21 04:10:06;;;;;;;2.67;1.22;;;;;;;-1.44;73.19;100157.01;1584824;89;26402;-75
2022/01/21 04:12:32;;;;;;;4.97;1.70;;;;;;;-1.43;73.04;100160.48;1606797;87;27481;-76
2022/01/21 04:14:59;;;;;;;3.25;1.32;;;;;;;-1.42;73.09;100155.56;1607171;88;25923;-76
2022/01/21 04:17:27;;;;;;;3.75;1.70;;;;;;;-1.41;73.03;100158.56;1585247;89;25801;-76
2022/01/21 04:19:54;;;;;;;3.75;1.85;;;;;;;-1.41;73.12;100154.63;1606897;87;26589;-76
2022/01/21 04:22:21;;;;;;;4.92;2.20;;;;;;;-1.42;72.96;100153.78;1607323;88;25935;-76
2022/01/21 04:24:49;;;;;;;5.42;2.37;;;;;;;-1.42;73.22;100155.09;1606994;88;27521;-77
2022/01/21 04:27:19;;;;;;;3.40;1.35;;;;;;;-1.42;73.32;100156.88;1585282;89;25844;-75
2022/01/21 04:29:46;;;;;;;4.30;1.75;;;;;;;-1.42;73.31;100162.13;1606987;87;25936;-76
2022/01/21 04:32:15;;;;;;;4.87;1.30;;;;;;;-1.43;73.29;100165.23;1606673;88;26169;-76
2022/01/21 04:34:42;;;;;;;5.10;1.57;;;;;;;-1.43;73.41;100163.10;1606914;88;25924;-76
2022/01/21 04:37:12;;;;;;;3.00;1.40;;;;;;;-1.46;73.49;100162.02;1607003;88;27461;-76
2022/01/21 04:39:48;;;;;;;4.12;1.57;;;;;;;-1.47;73.52;100162.95;1605395;87;25816;-76
2022/01/21 04:47:35;;;;;;;6.10;2.60;;;;;;;-1.57;73.63;100141.39;1606859;88;25778;-77
2022/01/21 04:50:09;;;;;;;3.17;1.55;;;;;;;-1.45;73.99;100170.27;1606752;87;28262;-76
2022/01/21 04:52:33;;;;;;;7.47;1.95;;;;;;;-1.45;74.21;100181.59;1606818;89;25768;-75
2022/01/21 04:55:02;;;;;;;5.83;1.47;;;;;;;-1.43;74.07;100173.61;1610892;87;26572;-77
2022/01/21 04:57:31;;;;;;;5.08;1.37;;;;;;;-1.43;74.23;100184.92;1637226;87;26577;-76
2022/01/21 04:59:57;;;;;;;4.65;1.60;;;;;;;-1.41;74.26;100173.01;1637512;86;26051;-76
2022/01/21 05:02:26;;;;;;;8.43;1.80;;;;;;;-1.40;74.25;100176.82;1637821;87;27440;-76
2022/01/21 05:04:52;;;;;;;2.83;2.00;;;;;;;-1.40;74.37;100178.12;1637707;87;25855;-76
2022/01/21 05:07:22;;;;;;;5.45;1.37;;;;;;;-1.40;74.41;100172.87;1638059;87;25320;-76
2022/01/21 05:09:47;;;;;;;4.85;1.65;;;;;;;-1.39;74.43;100173.22;1637313;86;25874;-75
2022/01/21 05:12:18;;;;;;;4.72;1.42;;;;;;;-1.39;74.42;100171.09;1637968;87;25319;-76
2022/01/21 05:17:19;;;;;;;7.15;1.10;;;;;;;-1.43;74.27;100181.48;1597801;86;25388;-76
2022/01/21 05:19:45;;;;;;;2.67;1.55;;;;;;;-1.44;74.34;100190.31;1637563;86;26737;-77
2022/01/21 05:22:16;;;;;;;8.03;2.00;;;;;;;-1.44;74.18;100186.37;1616716;87;26743;-75
2022/01/21 05:24:45;;;;;;;5.00;1.42;;;;;;;-1.45;74.01;100183.41;1637564;87;25879;-78
2022/01/21 05:27:12;;;;;;;4.60;1.52;;;;;;;-1.45;74.06;100188.16;1638127;87;27438;-76
2022/01/21 05:29:41;;;;;;;6.47;1.77;;;;;;;-1.45;74.02;100183.41;1637195;86;25997;-76
2022/01/21 05:32:25;;;;;;;10.78;1.90;;;;;;;-1.43;74.16;100194.12;1556741;90;25844;-77
2022/01/21 05:34:59;;;;;;;8.18;1.85;;;;;;;-1.42;74.17;100187.92;1615641;87;25966;-76
2022/01/21 05:37:27;;;;;;;5.40;2.00;;;;;;;-1.39;74.19;100194.23;1613751;87;26011;-77
2022/01/21 05:40:12;;;;;;;7.55;1.30;;;;;;;-1.35;74.31;100199.63;1635633;86;28178;-76
2022/01/21 05:42:40;;;;;;;3.40;1.55;;;;;;;-1.30;74.39;100196.14;1603654;87;25933;-76
2022/01/21 05:48:16;;;;;;;6.53;1.55;;;;;;;-1.21;74.32;100198.05;1581574;90;26620;-76
2022/01/21 05:50:47;;;;;;;4.08;2.00;;;;;;;-1.17;74.42;100206.51;1595699;87;25979;-76
2022/01/21 05:53:17;;;;;;;;;;;;;;;-1.15;74.43;100196.23;1608358;88;28349;-75
2022/01/21 05:56:02;;;;;;;3.50;1.17;;;;;;;-1.13;74.06;100207.93;1610661;87;25829;-77
2022/01/21 05:58:36;;;;;;;4.42;1.70;;;;;;;-1.16;74.15;100208.20;1626901;87;25928;-79
2022/01/21 06:01:03;;;;;;;3.98;1.12;;;;;;;-1.14;74.25;100204.49;1629742;86;25906;-77
2022/01/21 06:03:34;;;;;;;2.72;1.35;;;;;;;-1.13;74.12;100207.93;1620031;88;25847;-75
2022/01/21 06:06:00;;;;;;;3.75;1.37;;;;;;;-1.12;74.30;100205.67;1631809;86;28231;-76
2022/01/21 06:08:26;;;;;;;4.30;1.40;;;;;;;-1.12;74.25;100214.41;1631540;87;25848;-77
2022/01/21 06:10:52;;;;;;;5.60;1.52;;;;;;;-1.09;74.60;100217.27;1631573;86;26499;-76
2022/01/21 06:13:19;;;;;;;7.35;1.70;;;;;;;-1.09;74.41;100223.84;1631285;87;25887;-76
2022/01/21 06:15:47;;;;;;;5.60;1.80;;;;;;;-1.09;74.48;100225.16;1631289;87;25836;-75
2022/01/21 06:18:13;;;;;;;2.10;1.10;;;;;;;-1.10;74.33;100226.94;1629204;87;27685;-75
2022/01/21 06:20:39;;;;;;;2.35;1.07;;;;;;;-1.12;74.30;100227.55;1627207;86;25899;-76
2022/01/21 06:23:05;;;;;;;8.18;1.45;;;;;;;-1.13;74.51;100223.23;1627525;87;26017;-76
2022/01/21 06:25:32;;;;;;;3.58;1.30;;;;;;;-1.12;74.51;100226.70;1626379;88;26549;-77
2022/01/21 06:27:58;;;;;;;5.15;1.30;;;;;;;-1.12;74.64;100243.31;1627378;87;25834;-75
2022/01/21 06:30:24;;;;;;;6.72;1.70;;;;;;;-1.12;74.59;100239.84;1627101;86;27470;-76
2022/01/21 06:32:50;;;;;;;8.70;1.40;;;;;;;-1.12;74.63;100243.78;1627404;87;26560;-76
2022/01/21 06:35:17;;;;;;;3.75;1.70;;;;;;;-1.13;74.73;100244.72;1627249;88;25556;-75
2022/01/21 06:37:43;;;;;;;3.25;1.30;;;;;;;-1.13;74.78;100252.61;1627865;87;25957;-76
2022/01/21 06:40:10;;;;;;;4.10;1.20;;;;;;;-1.14;74.75;100249.17;1627375;86;25793;-76
2022/01/21 06:42:37;;;;;;;5.22;2.05;;;;;;;-1.14;74.69;100251.80;1627071;87;28271;-76
2022/01/21 06:45:05;;;;;;;6.50;1.55;;;;;;;-1.18;74.72;100248.22;1627046;88;25320;-76
2022/01/21 06:47:31;;;;;;;4.60;1.40;;;;;;;-1.19;74.74;100250.47;1627557;87;25787;-77
2022/01/21 06:49:59;;;;;;;3.00;1.65;;;;;;;-1.18;74.72;100258.72;1627122;86;26705;-76
2022/01/21 06:52:29;;;;;;;5.28;1.50;;;;;;;-1.20;74.78;100264.11;1627456;87;25846;-77
2022/01/21 06:54:57;;;;;;;6.20;1.47;;;;;;;-1.18;74.77;100257.41;1627248;88;27466;-76
2022/01/21 06:57:23;;;;;;;4.22;1.30;;;;;;;-1.17;74.78;100257.75;1617754;87;25898;-76
2022/01/21 06:59:49;;;;;;;3.00;1.12;;;;;;;-1.16;74.67;100252.88;1616258;87;26508;-76
2022/01/21 07:02:18;;;;;;;5.80;1.50;;;;;;;-1.16;74.59;100258.97;1616248;88;25840;-75
2022/01/21 07:04:49;;;;;;;3.47;1.35;;;;;;;-1.15;74.60;100259.31;1616578;88;26486;-75
2022/01/21 07:07:16;;;;;;;5.30;1.90;;;;;;;-1.12;74.55;100264.81;1618316;88;28296;-76
2022/01/21 07:09:43;;;;;;;5.45;1.45;;;;;;;-1.13;74.14;100269.22;1620172;87;26530;-76
2022/01/21 07:12:10;;;;;;;4.67;1.40;;;;;;;-1.12;73.79;100268.75;1620288;87;25860;-75
2022/01/21 07:14:36;;;;;;;3.72;1.20;;;;;;;-1.10;74.18;100266.84;1620315;87;25890;-77
2022/01/21 07:17:04;;;;;;;4.80;1.60;;;;;;;-1.08;74.17;100266.23;1620104;88;26507;-76
2022/01/21 07:19:30;;;;;;;6.53;1.42;;;;;;;-1.06;74.00;100277.45;1620336;87;27434;-76
2022/01/21 07:21:57;;;;;;;5.45;1.95;;;;;;;-1.05;73.74;100269.95;1618958;87;26600;-76
2022/01/21 07:24:23;;;;;;;9.15;1.52;;;;;;;-1.03;73.82;100273.28;1619157;87;25787;-75
2022/01/21 07:26:49;;;;;;;8.15;1.80;;;;;;;-1.02;73.27;100280.20;1615690;88;26615;-77
2022/01/21 07:29:15;;;;;;;3.67;1.27;;;;;;;-1.00;73.35;100288.33;1607906;87;25832;-76
2022/01/21 07:31:42;;;;;;;4.47;1.92;;;;;;;-0.97;73.51;100295.98;1606017;88;27455;-76
2022/01/21 07:34:08;;;;;;;2.90;1.22;;;;;;;-0.94;73.43;100290.47;1600346;87;25827;-76
2022/01/21 07:36:35;;;;;;;4.85;1.50;;;;;;;-0.90;73.33;100286.63;1594522;88;25632;-76
2022/01/21 07:39:04;;;;;;;2.90;1.37;;;;;;;-0.88;73.05;100289.97;1594692;88;26537;-75
2022/01/21 07:41:30;;;;;;;4.37;1.47;;;;;;;-0.85;73.11;100292.38;1594160;89;26585;-76
2022/01/21 07:43:56;;;;;;;5.97;1.20;;;;;;;-0.82;72.45;100290.83;1594266;88;27483;-76
2022/01/21 07:46:23;;;;;;;7.87;1.57;;;;;;;-0.77;72.62;100301.45;1594421;88;25931;-76
2022/01/21 07:48:49;;;;;;;3.70;1.20;;;;;;;-0.75;72.50;100309.59;1605072;88;25854;-76
2022/01/21 07:51:15;;;;;;;4.97;1.50;;;;;;;-0.70;72.17;100315.77;1605258;88;26570;-77
2022/01/21 07:53:41;;;;;;;5.22;1.50;;;;;;;-0.66;72.51;100329.87;1594494;89;25855;-76
2022/01/21 07:56:08;;;;;;;5.17;1.42;;;;;;;-0.60;72.50;100333.35;1596715;89;28329;-77
2022/01/21 07:58:34;;;;;;;4.70;1.55;;;;;;;-0.53;72.56;100325.30;1606113;89;25864;-75
2022/01/21 08:01:00;;;;;;;4.67;1.50;;;;;;;-0.45;72.70;100336.54;1606167;89;26523;-76
2022/01/21 08:03:26;;;;;;;3.83;1.85;;;;;;;-0.38;72.52;100332.44;1606221;89;25915;-76
2022/01/21 08:05:53;;;;;;;4.53;1.85;;;;;;;-0.31;72.04;100340.20;1606155;89;25899;-76
2022/01/21 08:08:19;;;;;;;11.68;3.15;;;;;;;-0.23;72.49;100334.67;1630472;87;27459;-76
2022/01/21 08:10:45;;;;;;;7.92;2.25;;;;;;;-0.13;72.30;100339.53;1632209;86;25933;-76
2022/01/21 08:13:13;;;;;;;8.40;2.45;;;;;;;-0.05;71.94;100331.03;1632144;87;25932;-77
2022/01/21 08:15:39;;;;;;;9.40;4.95;;;;;;;0.02;71.91;100333.52;1632264;87;26414;-76
2022/01/21 08:18:06;;;;;;;6.55;2.50;;;;;;;0.07;71.77;100340.53;1632352;87;25836;-78
2022/01/21 08:20:32;;;;;;;8.60;1.85;;;;;;;0.09;70.56;100335.98;1632316;86;27621;-76
2022/01/21 08:22:58;;;;;;;7.22;2.05;;;;;;;0.09;71.24;100346.98;1632265;87;25932;-76
2022/01/21 08:25:25;;;;;;;6.03;2.33;;;;;;;0.06;71.20;100341.52;1632207;87;36271;-77
2022/01/21 08:27:52;;;;;;;5.87;2.00;;;;;;;0.11;71.31;100351.17;1632539;87;25871;-77
2022/01/21 08:30:18;;;;;;;6.08;1.87;;;;;;;0.11;70.95;100349.04;1632160;86;26590;-76
2022/01/21 08:32:44;;;;;;;6.08;2.67;;;;;;;0.10;71.34;100349.52;1632186;87;27547;-76
2022/01/21 08:35:11;;;;;;;4.15;2.42;;;;;;;0.12;71.52;100350.70;1632242;87;26204;-77
2022/01/21 08:37:38;;;;;;;4.15;1.92;;;;;;;0.16;71.59;100352.11;1632519;87;25811;-76
2022/01/21 08:40:07;;;;;;;6.37;2.10;;;;;;;0.16;71.16;100356.06;1632389;86;26634;-76
2022/01/21 08:42:33;;;;;;;7.15;2.87;;;;;;;0.15;71.20;100354.41;1632302;87;25954;-76
2022/01/21 08:44:59;;;;;;;7.60;3.50;;;;;;;0.15;71.46;100357.84;1632353;87;27474;-77
2022/01/21 08:47:25;;;;;;;11.70;5.58;;;;;;;0.18;71.51;100361.56;1632387;87;25833;-77
2022/01/21 08:49:53;;;;;;;7.25;3.70;;;;;;;0.17;71.41;100364.33;1632347;86;26301;-76
2022/01/21 08:52:21;;;;;;;8.03;3.20;;;;;;;0.16;71.42;100365.28;1632281;87;26559;-76
2022/01/21 08:54:49;;;;;;;7.72;2.85;;;;;;;0.15;71.31;100371.02;1632390;87;25963;-76
2022/01/21 08:57:17;;;;;;;5.00;2.20;;;;;;;0.16;71.35;100374.49;1632441;87;28043;-76
2022/01/21 08:59:44;;;;;;;9.93;2.65;;;;;;;0.19;71.69;100379.05;1607981;87;25763;-76
2022/01/21 09:02:11;;;;;;;6.58;2.42;;;;;;;0.18;71.00;100383.95;1632124;87;25883;-76
2022/01/21 09:04:37;;;;;;;12.43;4.95;;;;;;;0.20;71.08;100377.23;1632617;87;25823;-76
2022/01/21 09:07:04;;;;;;;8.28;2.65;;;;;;;0.23;71.22;100380.94;1632464;87;25763;-76
2022/01/21 09:09:30;;;;;;;9.45;2.75;;;;;;;0.25;70.73;100378.54;1633138;86;28693;-77
2022/01/21 09:12:00;;;;;;;5.20;2.05;;;;;;;0.26;70.26;100374.08;1632562;87;25891;-76
2022/01/21 09:14:24;;;;;;;5.87;2.30;;;;;;;0.27;70.26;100375.77;1632651;87;25783;-76
2022/01/21 09:16:52;;;;;;;7.22;2.45;;;;;;;0.30;70.30;100384.24;1632488;87;26525;-76
2022/01/21 09:19:18;;;;;;;4.65;1.77;;;;;;;0.33;69.87;100377.89;1632694;86;25799;-76
2022/01/21 09:21:45;;;;;;;4.12;1.50;;;;;;;0.34;69.62;100380.89;1632642;87;27473;-76
2022/01/21 09:24:12;;;;;;;5.53;2.00;;;;;;;0.33;69.62;100378.73;1632611;87;26310;-76
2022/01/21 09:26:38;;;;;;;10.20;3.75;;;;;;;0.36;69.89;100377.65;1632652;87;25934;-76
2022/01/21 09:29:05;;;;;;;5.85;2.30;;;;;;;0.39;69.24;100380.85;1632734;87;26763;-76
2022/01/21 09:31:32;;;;;;;3.95;1.95;;;;;;;0.42;69.64;100384.56;1632485;85;26050;-76
2022/01/21 09:33:59;;;;;;;4.53;1.80;;;;;;;0.43;69.52;100379.63;1632500;87;28297;-76
2022/01/21 09:36:25;;;;;;;4.53;1.70;;;;;;;0.43;68.39;100386.69;1632574;87;25887;-76
2022/01/21 09:38:51;;;;;;;4.90;2.92;;;;;;;0.39;68.81;100380.85;1632952;87;25878;-76
2022/01/21 09:41:18;;;;;;;3.65;1.85;;;;;;;0.43;68.90;100390.17;1632420;86;25835;-76
2022/01/21 09:43:48;;;;;;;9.18;2.80;;;;;;;0.46;68.75;100382.02;1632609;86;26536;-76
2022/01/21 09:46:16;;;;;;;9.68;2.27;;;;;;;0.49;68.30;100384.38;1632618;87;34055;-76
2022/01/21 09:48:52;;;;;;;7.53;1.60;;;;;;;0.50;68.04;100375.53;1632846;87;25885;-76
2022/01/21 09:51:17;;;;;;;7.70;2.52;;;;;;;0.53;68.22;100390.26;1632422;86;25831;-75
2022/01/21 09:53:44;;;;;;;6.30;2.60;;;;;;;0.52;67.77;100385.94;1632792;87;26558;-76
2022/01/21 09:56:10;;;;;;;7.12;2.35;;;;;;;0.54;67.80;100376.09;1632662;87;25980;-76
2022/01/21 09:58:37;;;;;;;10.05;2.72;;;;;;;0.55;68.56;100383.90;1632617;86;27452;-75
2022/01/21 10:01:05;;;;;;;8.15;2.50;;;;;;;0.61;68.67;100392.60;1632260;86;26554;-76
2022/01/21 10:03:33;;;;;;;4.53;1.65;;;;;;;0.64;67.97;100382.29;1632436;87;25985;-76
2022/01/21 10:06:02;;;;;;;7.67;2.45;;;;;;;0.69;67.35;100386.67;1632455;87;26602;-76
2022/01/21 10:08:31;;;;;;;4.58;2.00;;;;;;;0.73;67.13;100385.45;1632710;87;26176;-76
2022/01/21 10:10:57;;;;;;;8.30;2.20;;;;;;;0.74;66.97;100381.86;1632573;86;27477;-76
2022/01/21 10:13:24;;;;;;;4.37;1.70;;;;;;;0.79;67.25;100374.41;1632463;87;25838;-76
2022/01/21 10:15:50;;;;;;;18.57;6.42;;;;;;;0.82;67.23;100378.56;1632664;87;25995;-77
2022/01/21 10:18:19;;;;;;;6.70;2.60;;;;;;;0.84;67.34;100381.90;1632660;87;26551;-77
2022/01/21 10:21:10;;;;;;;8.38;3.12;;;;;;;0.86;66.23;100386.56;1632494;86;25783;-77
2022/01/21 10:23:39;;;;;;;5.62;2.00;;;;;;;0.87;67.01;100386.45;1632207;87;27597;-76
2022/01/21 10:26:13;;;;;;;6.90;2.05;;;;;;;0.88;67.19;100385.98;1631527;87;25832;-76
2022/01/21 10:28:43;;;;;;;3.33;1.75;;;;;;;0.87;67.23;100381.66;1632598;87;25907;-75
2022/01/21 10:31:16;;;;;;;7.42;2.95;;;;;;;0.87;66.08;100384.29;1632321;86;34923;-76
2022/01/21 10:33:50;;;;;;;15.25;6.12;;;;;;;0.85;66.37;100379.16;1632582;87;25885;-76
2022/01/21 10:36:28;;;;;;;9.50;3.67;;;;;;;0.86;66.97;100377.33;1632685;87;27478;-77
2022/01/21 10:39:11;;;;;;;10.13;3.72;;;;;;;0.89;66.74;100376.61;1632864;87;25918;-76
2022/01/21 10:41:43;;;;;;;14.13;3.75;;;;;;;0.87;65.51;100371.95;1632278;87;26606;-76
2022/01/21 10:44:19;;;;;;;7.35;3.25;;;;;;;0.91;66.69;100368.08;1632607;87;25846;-77
2022/01/21 10:47:07;;;;;;;14.47;5.33;;;;;;;0.97;65.54;100370.66;1632480;87;25963;-76
2022/01/21 10:49:39;;;;;;;7.08;3.65;;;;;;;0.94;65.08;100365.67;1632413;86;27485;-77
2022/01/21 10:52:04;;;;;;;12.25;5.87;;;;;;;0.97;65.63;100382.53;1632478;87;25789;-76
2022/01/21 10:54:31;;;;;;;5.55;2.72;;;;;;;0.97;65.77;100375.94;1632387;87;26014;-76
2022/01/21 10:57:16;;;;;;;10.43;3.25;;;;;;;0.98;65.59;100370.55;1632661;87;26517;-77
2022/01/21 10:59:59;;;;;;;6.10;2.50;;;;;;;0.96;66.27;100381.72;1632530;86;25791;-76
2022/01/21 11:02:37;;;;;;;7.35;2.87;;;;;;;0.95;65.24;100372.13;1632439;87;27538;-76
2022/01/21 11:05:11;;;;;;;8.73;2.75;;;;;;;0.91;65.33;100372.04;1632624;87;25851;-76
2022/01/21 11:08:01;;;;;;;12.95;4.45;;;;;;;0.85;65.32;100375.20;1632884;86;26472;-77
2022/01/21 11:10:43;;;;;;;7.17;3.62;;;;;;;0.80;65.48;100366.84;1632572;86;26595;-76
2022/01/21 11:13:21;;;;;;;7.83;2.75;;;;;;;0.75;65.21;100366.37;1632349;87;26213;-77
2022/01/21 11:15:55;;;;;;;6.12;3.17;;;;;;;0.72;65.15;100381.16;1632575;87;27654;-76
2022/01/21 11:18:23;;;;;;;4.65;2.40;;;;;;;0.72;65.82;100391.70;1632687;87;26563;-77
2022/01/21 11:20:57;;;;;;;4.03;2.62;;;;;;;0.74;65.84;100392.41;1632733;85;25819;-76
2022/01/21 11:23:27;;;;;;;5.67;2.70;;;;;;;0.74;65.56;100384.02;1632445;87;26721;-77
2022/01/21 11:25:58;;;;;;;6.75;2.92;;;;;;;0.71;65.81;100393.97;1633052;87;25764;-76
2022/01/21 11:28:26;;;;;;;;;;;;;;;0.73;65.84;100384.97;1635499;87;27510;-77
2022/01/21 11:30:54;;;;;;;11.22;4.05;;;;;;;0.74;65.49;100386.66;1633083;86;25812;-76
2022/01/21 11:33:22;;;;;;;8.68;3.70;;;;;;;0.72;65.67;100379.84;1633185;87;25759;-77
2022/01/21 11:35:51;;;;;;;8.08;3.40;;;;;;;0.68;65.64;100376.61;1633277;87;25883;-75
2022/01/21 11:38:20;;;;;;;9.28;2.02;;;;;;;0.65;64.97;100374.72;1633497;87;26604;-77
2022/01/21 11:40:49;;;;;;;11.55;3.42;;;;;;;0.63;65.10;100376.66;1633171;86;27599;-76
2022/01/21 11:43:16;;;;;;;5.97;2.98;;;;;;;0.61;65.48;100375.47;1632900;87;25934;-76
2022/01/21 11:51:26;;;;;;;4.92;2.05;;;;;;;0.70;65.53;100374.70;1624924;87;25771;-76
2022/01/21 11:54:00;;;;;;;9.25;2.50;;;;;;;0.74;65.07;100381.39;1633318;87;27487;-76
2022/01/21 11:57:02;;;;;;;4.62;2.00;;;;;;;0.77;65.95;100376.31;1633233;87;26541;-76
2022/01/21 11:59:50;;;;;;;7.05;2.40;;;;;;;0.85;65.67;100373.05;1633117;86;25331;-76
2022/01/21 12:02:21;;;;;;;9.38;3.35;;;;;;;0.85;64.80;100371.72;1631307;87;26331;-76
2022/01/21 12:04:57;;;;;;;10.03;2.67;;;;;;;0.86;65.56;100376.02;1633469;87;25981;-75
2022/01/21 12:07:48;;;;;;;5.90;2.58;;;;;;;0.90;65.76;100388.81;1633261;87;27458;-76
2022/01/21 12:10:29;;;;;;;6.67;2.22;;;;;;;0.88;64.57;100380.20;1631467;86;26130;-76
2022/01/21 12:13:08;;;;;;;4.95;2.08;;;;;;;0.84;64.64;100383.22;1610546;87;26256;-76
2022/01/21 12:20:58;;;;;;;3.05;1.72;;;;;;;0.84;65.54;100377.47;1632635;86;27647;-77
2022/01/21 12:23:27;;;;;;;10.20;3.00;;;;;;;0.81;65.12;100383.02;1632290;87;26488;-75
2022/01/21 12:26:23;;;;;;;5.25;1.82;;;;;;;0.78;65.64;100380.63;1632657;87;25834;-76
2022/01/21 12:28:58;;;;;;;6.90;2.50;;;;;;;0.79;65.14;100384.95;1632429;87;26139;-76
2022/01/21 12:31:58;;;;;;;9.00;2.58;;;;;;;0.73;65.18;100389.41;1632503;86;25856;-76
2022/01/21 12:34:26;;;;;;;9.13;2.13;;;;;;;0.70;65.34;100387.89;1632837;87;27500;-76
2022/01/21 12:36:57;;;;;;;4.40;1.72;;;;;;;0.68;65.31;100383.70;1632469;87;26199;-75